Darstellungsparameter: Aktuell verwendete Einstellungen:
Skalierung der Graphiken ... ?
xyx+y,   Skalierungsfaktor:      Skalierung: Modus: x, Faktor: 1
Darstellungszeitraum ... ?
Vom - - bis: - -   Zeitraum: 06.03.2010 - 12.03.2010
Min/Max/Avg-Anzeige ... ?
Zeige MMA aktuell
Zeige MMA Monat
Zeige MMA alles
Zeige --A aktuell
Zeige --A Monat
Zeige --A alles
Keine MMA-Anzeige
MMA:
Keine MMA-Graphiken
MMA-Basis: 06.03.2010 - 12.03.2010
Quicknavigation für Darstellung... ?
Tage:      1T, 2T, 3T, 5T -1T -2T -3T -5T +1T +2T +3T +5T
Wochen: 1W, 2W, 3W -1W -2W -3W +1W +2W +3W
Monate: 1M, 3M, 6M -1M -3M -6M +1M +3M +6M
Jahre:    1J, 3J, 5J, 10J -1J -3J -5J -10J +1J +3J +5J +10J
Nutze für die Darstellung ... ?
Originaldaten oder Mittelwerte auf ...
Stundenbasis Tagesbasis Wochenbasis
Monatsbasis Jahresbasis      Datenbasis: Original-Daten
Darstellen als:
Statistik (Auto) Statistik J:M      Darstellung:
Zur Graphik,    zurück zur Übersicht aller Sensoren.
 
Tabellarische Datenbersicht: ?
 
Sensor: Nr:Datum:Temp:Abs-Feuchte:Windchill:Wind:
Aussen-T/F 1 06-03-2010 00:00:03 0.9 C 4.28 g/m*3 0.9 C 0 km/h
2 06-03-2010 00:12:02 0.7 C 4.17 g/m*3 0.7 C 0 km/h
3 06-03-2010 00:25:05 0.6 C 4.24 g/m*3 0.6 C 0 km/h
4 06-03-2010 00:37:05 0.7 C 4.27 g/m*3 0.7 C 0 km/h
5 06-03-2010 00:49:05 0.6 C 4.29 g/m*3 0.6 C 0 km/h
6 06-03-2010 01:01:05 0.6 C 4.34 g/m*3 0.6 C 0 km/h
7 06-03-2010 01:13:05 0.5 C 4.36 g/m*3 0.5 C 0 km/h
8 06-03-2010 01:25:05 0.5 C 4.41 g/m*3 0.5 C 0 km/h
9 06-03-2010 01:37:06 0.4 C 4.43 g/m*3 0.4 C 0 km/h
10 06-03-2010 01:49:06 0.5 C 4.46 g/m*3 0.5 C 0 km/h
11 06-03-2010 02:01:06 0.6 C 4.54 g/m*3 0.6 C 0 km/h
12 06-03-2010 02:13:06 0.6 C 4.6 g/m*3 0.6 C 0 km/h
13 06-03-2010 02:25:06 0.6 C 4.6 g/m*3 0.6 C 0 km/h
14 06-03-2010 02:37:06 0.6 C 4.6 g/m*3 0.6 C 0 km/h
15 06-03-2010 02:49:06 0.5 C 4.61 g/m*3 0.5 C 0 km/h
16 06-03-2010 03:01:06 0.4 C 4.58 g/m*3 0.4 C 0 km/h
17 06-03-2010 03:13:06 0.3 C 4.55 g/m*3 0.3 C 0 km/h
18 06-03-2010 03:25:06 0.2 C 4.57 g/m*3 0.2 C 0 km/h
19 06-03-2010 03:37:06 0.1 C 4.54 g/m*3 0.1 C 0 km/h
20 06-03-2010 03:49:06 0 C 4.51 g/m*3 0 C 0 km/h
21 06-03-2010 04:01:06 0 C 4.51 g/m*3 0 C 0 km/h
22 06-03-2010 04:13:06 0 C 4.51 g/m*3 0 C 0 km/h
23 06-03-2010 04:25:06 0 C 4.51 g/m*3 0 C 0 km/h
24 06-03-2010 04:37:06 0 C 4.55 g/m*3 0 C 0 km/h
25 06-03-2010 04:49:06 0 C 4.55 g/m*3 0 C 0 km/h
Sensor: Nr:Datum:Temp:Abs-Feuchte:Windchill:Wind:
Aussen-T/F 26 06-03-2010 05:01:06 0 C 4.55 g/m*3 0 C 0 km/h
27 06-03-2010 05:13:06 -0.1 C 4.47 g/m*3 -0.1 C 0 km/h
28 06-03-2010 05:25:06 0 C 4.51 g/m*3 0 C 0 km/h
29 06-03-2010 05:37:06 0 C 4.51 g/m*3 0 C 0 km/h
30 06-03-2010 05:49:07 0 C 4.51 g/m*3 0 C 0 km/h
31 06-03-2010 06:01:07 -0.1 C 4.43 g/m*3 -0.1 C 0 km/h
32 06-03-2010 06:13:07 -0.2 C 4.4 g/m*3 -0.2 C 0 km/h
33 06-03-2010 06:25:07 -0.2 C 4.3 g/m*3 -0.2 C 0 km/h
34 06-03-2010 06:37:07 -0.2 C 4.21 g/m*3 -0.2 C 0 km/h
35 06-03-2010 06:49:07 -0.1 C 4.14 g/m*3 -0.1 C 0 km/h
36 06-03-2010 07:01:07 -0.1 C 4.09 g/m*3 -0.1 C 0 km/h
37 06-03-2010 07:13:07 0 C 4.12 g/m*3 0 C 0 km/h
38 06-03-2010 07:25:07 0 C 4.17 g/m*3 0 C 0 km/h
39 06-03-2010 07:37:07 0 C 4.17 g/m*3 0 C 0 km/h
40 06-03-2010 07:49:01 0 C 4.12 g/m*3 0 C 0 km/h
41 06-03-2010 08:01:02 0.1 C 4.2 g/m*3 0.1 C 0 km/h
42 06-03-2010 08:13:02 0.1 C 4.2 g/m*3 0.1 C 0 km/h
43 06-03-2010 08:25:01 0.2 C 4.22 g/m*3 0.2 C 0 km/h
44 06-03-2010 08:37:02 0.4 C 4.23 g/m*3 0.4 C 0 km/h
45 06-03-2010 08:49:01 0.4 C 4.13 g/m*3 0.4 C 0 km/h
46 06-03-2010 09:01:02 0.4 C 4.03 g/m*3 0.4 C 0 km/h
47 06-03-2010 09:13:02 0.4 C 4.03 g/m*3 0.4 C 0 km/h
48 06-03-2010 09:25:02 0.4 C 4.08 g/m*3 0.4 C 0 km/h
49 06-03-2010 09:37:02 0.3 C 4.06 g/m*3 0.3 C 0 km/h
50 06-03-2010 09:49:02 0.4 C 4.03 g/m*3 0.4 C 0 km/h
Sensor: Nr:Datum:Temp:Abs-Feuchte:Windchill:Wind:
Aussen-T/F 51 06-03-2010 10:01:02 0.4 C 3.88 g/m*3 0.4 C 0 km/h
52 06-03-2010 10:13:02 0.5 C 3.71 g/m*3 0.5 C 0 km/h
53 06-03-2010 10:25:02 0.5 C 3.71 g/m*3 0.5 C 0 km/h
54 06-03-2010 10:37:02 0.5 C 3.71 g/m*3 0.5 C 0 km/h
55 06-03-2010 10:49:01 0.4 C 3.59 g/m*3 0.4 C 0 km/h
56 06-03-2010 11:01:02 0.5 C 3.66 g/m*3 0.5 C 0 km/h
57 06-03-2010 11:13:02 0.4 C 3.59 g/m*3 0.4 C 0 km/h
58 06-03-2010 11:25:01 0.5 C 3.56 g/m*3 0.5 C 0 km/h
59 06-03-2010 11:37:01 0.4 C 3.39 g/m*3 0.4 C 0 km/h
60 06-03-2010 11:49:01 0.3 C 3.26 g/m*3 0.3 C 0 km/h
61 06-03-2010 12:01:02 0.4 C 3.34 g/m*3 0.4 C 0 km/h
62 06-03-2010 12:13:02 0.5 C 3.26 g/m*3 0.5 C 0 km/h
63 06-03-2010 12:25:01 0.4 C 3.19 g/m*3 0.4 C 0 km/h
64 06-03-2010 12:37:02 0.6 C 3.23 g/m*3 0.6 C 0 km/h
65 06-03-2010 12:49:02 0.7 C 3.36 g/m*3 0.7 C 0 km/h
66 06-03-2010 13:01:02 0.8 C 3.28 g/m*3 0.8 C 0 km/h
67 06-03-2010 13:13:02 1.1 C 3.29 g/m*3 1.1 C 0 km/h
68 06-03-2010 13:25:01 0.9 C 2.94 g/m*3 0.9 C 0 km/h
69 06-03-2010 13:37:02 0.5 C 3.11 g/m*3 0.5 C 0 km/h
70 06-03-2010 13:49:02 0.4 C 3.34 g/m*3 0.4 C 0 km/h
71 06-03-2010 14:01:02 0.2 C 3.19 g/m*3 0.2 C 0 km/h
72 06-03-2010 14:13:02 0.5 C 3.36 g/m*3 0.5 C 0 km/h
73 06-03-2010 14:25:02 1 C 3.32 g/m*3 1 C 0 km/h
74 06-03-2010 14:37:02 1.7 C 3.27 g/m*3 1.7 C 0 km/h
75 06-03-2010 14:49:02 1.4 C 3.04 g/m*3 1.4 C 0 km/h
Sensor: Nr:Datum:Temp:Abs-Feuchte:Windchill:Wind:
Aussen-T/F 76 06-03-2010 15:01:02 1.3 C 3.02 g/m*3 1.3 C 0 km/h
77 06-03-2010 15:13:02 1.3 C 2.97 g/m*3 1.3 C 0 km/h
78 06-03-2010 15:25:02 1.5 C 2.79 g/m*3 1.5 C 0 km/h
79 06-03-2010 15:37:02 1.3 C 2.7 g/m*3 1.3 C 0 km/h
80 06-03-2010 15:49:02 1.4 C 2.67 g/m*3 1.4 C 0 km/h
81 06-03-2010 16:01:02 1.4 C 2.72 g/m*3 1.4 C 0 km/h
82 06-03-2010 16:13:02 0.9 C 2.63 g/m*3 0.9 C 0 km/h
83 06-03-2010 16:25:02 1 C 2.6 g/m*3 1 C 0 km/h
84 06-03-2010 16:37:02 0.8 C 2.66 g/m*3 0.8 C 0 km/h
85 06-03-2010 16:49:02 0.5 C 2.71 g/m*3 0.5 C 0 km/h
86 06-03-2010 17:01:02 0.2 C 2.55 g/m*3 0.2 C 0 km/h
87 06-03-2010 17:13:02 -0.2 C 2.25 g/m*3 -0.2 C 0 km/h
88 06-03-2010 17:25:02 -0.5 C 2.15 g/m*3 -0.5 C 0 km/h
89 06-03-2010 17:37:02 -0.6 C 2.14 g/m*3 -0.6 C 0 km/h
90 06-03-2010 17:49:01 -1 C 2.08 g/m*3 -1 C 0 km/h
91 06-03-2010 18:01:02 -1.4 C 2.02 g/m*3 -1.4 C 0 km/h
92 06-03-2010 18:13:02 -1.6 C 2.08 g/m*3 -1.6 C 0 km/h
93 06-03-2010 18:25:02 -1.8 C 2.05 g/m*3 -1.8 C 0 km/h
94 06-03-2010 18:37:02 -1.9 C 2.08 g/m*3 -1.9 C 0 km/h
95 06-03-2010 18:49:02 -1.8 C 2.05 g/m*3 -1.8 C 0 km/h
96 06-03-2010 19:01:02 -2 C 2.11 g/m*3 -2 C 0 km/h
97 06-03-2010 19:13:02 -2.3 C 2.1 g/m*3 -2.3 C 0 km/h
98 06-03-2010 19:25:02 -2.5 C 2.2 g/m*3 -2.5 C 0 km/h
99 06-03-2010 19:37:01 -2.6 C 2.22 g/m*3 -2.6 C 0 km/h
100 06-03-2010 19:49:02 -2.7 C 2.21 g/m*3 -2.7 C 0 km/h
Sensor: Nr:Datum:Temp:Abs-Feuchte:Windchill:Wind:
Aussen-T/F 101 06-03-2010 20:01:01 -2.7 C 2.21 g/m*3 -2.7 C 0 km/h
102 06-03-2010 20:13:01 -2.8 C 2.15 g/m*3 -2.8 C 0 km/h
103 06-03-2010 20:25:02 -3.1 C 2.15 g/m*3 -3.1 C 0 km/h
104 06-03-2010 20:37:01 -3.4 C 2.25 g/m*3 -3.4 C 0 km/h
105 06-03-2010 20:49:02 -3.6 C 2.3 g/m*3 -3.6 C 0 km/h
106 06-03-2010 21:01:01 -3.8 C 2.3 g/m*3 -3.8 C 0 km/h
107 06-03-2010 21:13:01 -4 C 2.34 g/m*3 -4 C 0 km/h
108 06-03-2010 21:25:02 -4 C 2.38 g/m*3 -4 C 0 km/h
109 06-03-2010 21:37:01 -4.2 C 2.38 g/m*3 -4.2 C 0 km/h
110 06-03-2010 21:50:03 -4.2 C 2.42 g/m*3 -4.2 C 0 km/h
111 06-03-2010 22:02:03 -4.3 C 2.43 g/m*3 -4.3 C 0 km/h
112 06-03-2010 22:14:03 -4.2 C 2.49 g/m*3 -4.2 C 0 km/h
113 06-03-2010 22:26:03 -4 C 2.52 g/m*3 -4 C 0 km/h
114 06-03-2010 22:38:03 -3.7 C 2.58 g/m*3 -3.7 C 0 km/h
115 06-03-2010 22:50:03 -3.4 C 2.6 g/m*3 -3.4 C 0 km/h
116 06-03-2010 23:02:03 -3.4 C 2.6 g/m*3 -3.4 C 0 km/h
117 06-03-2010 23:14:03 -3.3 C 2.58 g/m*3 -3.3 C 0 km/h
118 06-03-2010 23:26:03 -3.3 C 2.58 g/m*3 -3.3 C 0 km/h
119 06-03-2010 23:38:03 -3.5 C 2.5 g/m*3 -3.5 C 0 km/h
120 06-03-2010 23:50:03 -3.8 C 2.45 g/m*3 -3.8 C 0 km/h
121 07-03-2010 00:02:03 -4.2 C 2.42 g/m*3 -4.2 C 0 km/h
122 07-03-2010 00:14:03 -4.4 C 2.42 g/m*3 -4.4 C 0 km/h
123 07-03-2010 00:26:04 -4.5 C 2.4 g/m*3 -4.5 C 0 km/h
124 07-03-2010 00:38:04 -4.7 C 2.4 g/m*3 -4.7 C 0 km/h
125 07-03-2010 00:50:04 -4.6 C 2.42 g/m*3 -4.6 C 0 km/h
Sensor: Nr:Datum:Temp:Abs-Feuchte:Windchill:Wind:
Aussen-T/F 126 07-03-2010 01:02:04 -4.4 C 2.49 g/m*3 -4.4 C 0 km/h
127 07-03-2010 01:14:04 -4.3 C 2.47 g/m*3 -4.3 C 0 km/h
128 07-03-2010 01:26:04 -4.4 C 2.45 g/m*3 -4.4 C 0 km/h
129 07-03-2010 01:38:04 -4.5 C 2.44 g/m*3 -4.5 C 0 km/h
130 07-03-2010 01:50:04 -4.4 C 2.45 g/m*3 -4.4 C 0 km/h
131 07-03-2010 02:02:04 -4.4 C 2.49 g/m*3 -4.4 C 0 km/h
132 07-03-2010 02:14:04 -4.4 C 2.49 g/m*3 -4.4 C 0 km/h
133 07-03-2010 02:26:04 -4.6 C 2.45 g/m*3 -4.6 C 0 km/h
134 07-03-2010 02:38:04 -4.4 C 2.52 g/m*3 -4.4 C 0 km/h
135 07-03-2010 02:50:04 -4.5 C 2.51 g/m*3 -4.5 C 0 km/h
136 07-03-2010 03:02:04 -4.6 C 2.49 g/m*3 -4.6 C 0 km/h
137 07-03-2010 03:14:04 -4.8 C 2.45 g/m*3 -4.8 C 0 km/h
138 07-03-2010 03:26:04 -5 C 2.45 g/m*3 -5 C 0 km/h
139 07-03-2010 03:38:04 -5.1 C 2.43 g/m*3 -5.1 C 0 km/h
140 07-03-2010 03:50:04 -5.2 C 2.45 g/m*3 -5.2 C 0 km/h
141 07-03-2010 04:02:04 -5.3 C 2.43 g/m*3 -5.3 C 0 km/h
142 07-03-2010 04:14:04 -5.1 C 2.5 g/m*3 -5.1 C 0 km/h
143 07-03-2010 04:26:05 -4.9 C 2.54 g/m*3 -4.9 C 0 km/h
144 07-03-2010 04:38:05 -4.6 C 2.63 g/m*3 -4.6 C 0 km/h
145 07-03-2010 04:50:05 -4.6 C 2.63 g/m*3 -4.6 C 0 km/h
146 07-03-2010 05:02:05 -4.8 C 2.56 g/m*3 -4.8 C 0 km/h
147 07-03-2010 05:14:05 -5 C 2.52 g/m*3 -5 C 0 km/h
148 07-03-2010 05:26:05 -5.2 C 2.48 g/m*3 -5.2 C 0 km/h
149 07-03-2010 05:38:05 -5.3 C 2.47 g/m*3 -5.3 C 0 km/h
150 07-03-2010 05:50:05 -5.3 C 2.47 g/m*3 -5.3 C 0 km/h
Sensor: Nr:Datum:Temp:Abs-Feuchte:Windchill:Wind:
Aussen-T/F 151 07-03-2010 06:02:05 -5.6 C 2.41 g/m*3 -5.6 C 0 km/h
152 07-03-2010 06:14:05 -5.8 C 2.38 g/m*3 -5.8 C 0 km/h
153 07-03-2010 06:26:05 -5.8 C 2.41 g/m*3 -5.8 C 0 km/h
154 07-03-2010 06:38:05 -5.9 C 2.42 g/m*3 -5.9 C 0 km/h
155 07-03-2010 06:50:05 -6 C 2.41 g/m*3 -6 C 0 km/h
156 07-03-2010 07:02:05 -6 C 2.44 g/m*3 -6 C 0 km/h
157 07-03-2010 07:14:05 -6.1 C 2.42 g/m*3 -6.1 C 0 km/h
158 07-03-2010 07:26:05 -6.1 C 2.42 g/m*3 -6.1 C 0 km/h
159 07-03-2010 07:38:05 -6.4 C 2.34 g/m*3 -6.4 C 0 km/h
160 07-03-2010 07:50:05 -6.5 C 2.32 g/m*3 -6.5 C 0 km/h
161 07-03-2010 08:02:05 -6.5 C 2.32 g/m*3 -6.5 C 0 km/h
162 07-03-2010 08:14:05 -6.4 C 2.34 g/m*3 -6.4 C 0 km/h
163 07-03-2010 08:26:02 -6.2 C 2.4 g/m*3 -6.2 C 0 km/h
164 07-03-2010 08:38:03 -5.7 C 2.49 g/m*3 -5.7 C 0 km/h
165 07-03-2010 08:50:02 -5.3 C 2.57 g/m*3 -5.3 C 0 km/h
166 07-03-2010 09:02:02 -5 C 2.59 g/m*3 -5 C 0 km/h
167 07-03-2010 09:14:02 -4.6 C 2.63 g/m*3 -4.6 C 0 km/h
168 07-03-2010 09:26:02 -4.1 C 2.65 g/m*3 -4.1 C 0 km/h
169 07-03-2010 09:38:02 -3.5 C 2.65 g/m*3 -3.5 C 0 km/h
170 07-03-2010 09:50:02 -3 C 2.59 g/m*3 -3 C 0 km/h
171 07-03-2010 10:02:01 -2 C 2.66 g/m*3 -2 C 0 km/h
172 07-03-2010 10:14:01 -1.4 C 2.51 g/m*3 -1.4 C 0 km/h
173 07-03-2010 10:26:02 -1 C 2.4 g/m*3 -1 C 0 km/h
174 07-03-2010 10:38:02 -1 C 2.35 g/m*3 -1 C 0 km/h
175 07-03-2010 10:50:02 -1 C 2.31 g/m*3 -1 C 0 km/h
Sensor: Nr:Datum:Temp:Abs-Feuchte:Windchill:Wind:
Aussen-T/F 176 07-03-2010 11:02:03 -0.7 C 2.35 g/m*3 -0.7 C 0 km/h
177 07-03-2010 11:14:03 -0.5 C 2.29 g/m*3 -0.5 C 0 km/h
178 07-03-2010 11:26:02 -0.5 C 2.2 g/m*3 -0.5 C 0 km/h
179 07-03-2010 11:38:02 -0.4 C 2.22 g/m*3 -0.4 C 0 km/h
180 07-03-2010 11:50:02 -0.1 C 2.26 g/m*3 -0.1 C 0 km/h
181 07-03-2010 12:02:02 -0.2 C 2.15 g/m*3 -0.2 C 0 km/h
182 07-03-2010 12:14:02 0 C 2.23 g/m*3 0 C 0 km/h
183 07-03-2010 12:26:01 0.4 C 2.29 g/m*3 0.4 C 0 km/h
184 07-03-2010 12:38:02 0.9 C 2.32 g/m*3 0.9 C 0 km/h
185 07-03-2010 12:50:02 1.5 C 2.31 g/m*3 1.5 C 0 km/h
186 07-03-2010 13:02:02 1.6 C 2.16 g/m*3 1.6 C 0 km/h
187 07-03-2010 13:14:02 1.8 C 2.14 g/m*3 1.8 C 0 km/h
188 07-03-2010 13:26:02 2.2 C 2.14 g/m*3 2.2 C 0 km/h
189 07-03-2010 13:38:02 2.5 C 2.07 g/m*3 2.5 C 0 km/h
190 07-03-2010 13:50:02 2.9 C 2.07 g/m*3 2.9 C 0 km/h
191 07-03-2010 14:02:03 3 C 1.96 g/m*3 3 C 0 km/h
192 07-03-2010 14:14:03 3.3 C 2.06 g/m*3 3.3 C 0 km/h
193 07-03-2010 14:26:02 3.7 C 1.99 g/m*3 3.7 C 0 km/h
194 07-03-2010 14:38:02 3.7 C 1.74 g/m*3 3.7 C 0 km/h
195 07-03-2010 14:50:01 3.9 C 1.77 g/m*3 3.9 C 0 km/h
196 07-03-2010 15:02:02 4.2 C 1.68 g/m*3 4.2 C 0 km/h
197 07-03-2010 15:14:02 4.5 C 1.31 g/m*3 4.5 C 0 km/h
198 07-03-2010 15:26:01 4.6 C 1.32 g/m*3 4.6 C 0 km/h
199 07-03-2010 15:38:02 4.7 C 1.33 g/m*3 4.7 C 0 km/h
200 07-03-2010 15:50:02 5 C 1.36 g/m*3 5 C 0 km/h
Sensor: Nr:Datum:Temp:Abs-Feuchte:Windchill:Wind:
Aussen-T/F 201 07-03-2010 16:02:02 5.1 C 1.37 g/m*3 5.1 C 0 km/h
202 07-03-2010 16:14:02 5.3 C 1.39 g/m*3 5.3 C 0 km/h
203 07-03-2010 16:26:01 5.8 C 1.43 g/m*3 5.8 C 0 km/h
204 07-03-2010 16:38:02 5.9 C 1.44 g/m*3 5.9 C 0 km/h
205 07-03-2010 16:50:02 5.7 C 1.42 g/m*3 5.7 C 0 km/h
206 07-03-2010 17:02:02 5.8 C 1.43 g/m*3 5.8 C 0 km/h
207 07-03-2010 17:14:02 5.1 C 1.37 g/m*3 5.1 C 0 km/h
208 07-03-2010 17:26:02 4.9 C 1.35 g/m*3 4.9 C 0 km/h
209 07-03-2010 17:38:02 4.7 C 1.33 g/m*3 4.7 C 0 km/h
210 07-03-2010 17:50:02 4.1 C 1.28 g/m*3 4.1 C 0 km/h
211 07-03-2010 18:02:02 3.2 C 1.21 g/m*3 3.2 C 0 km/h
212 07-03-2010 18:14:03 2.2 C 1.63 g/m*3 2.2 C 0 km/h
213 07-03-2010 18:26:02 1.4 C 1.71 g/m*3 1.4 C 0 km/h
214 07-03-2010 18:38:02 0.6 C 1.77 g/m*3 0.6 C 0 km/h
215 07-03-2010 18:50:02 0.1 C 1.76 g/m*3 0.1 C 0 km/h
216 07-03-2010 19:02:02 -0.2 C 1.77 g/m*3 -0.2 C 0 km/h
217 07-03-2010 19:14:02 -0.4 C 1.74 g/m*3 -0.4 C 0 km/h
218 07-03-2010 19:26:02 -0.6 C 1.81 g/m*3 -0.6 C 0 km/h
219 07-03-2010 19:38:02 -0.7 C 1.85 g/m*3 -0.7 C 0 km/h
220 07-03-2010 19:50:01 -1.2 C 1.87 g/m*3 -1.2 C 0 km/h
221 07-03-2010 20:02:01 -1.4 C 1.89 g/m*3 -1.4 C 0 km/h
222 07-03-2010 20:14:02 -1.5 C 1.83 g/m*3 -1.5 C 0 km/h
223 07-03-2010 20:26:01 -1.7 C 1.89 g/m*3 -1.7 C 0 km/h
224 07-03-2010 20:38:01 -1.9 C 1.95 g/m*3 -1.9 C 0 km/h
225 07-03-2010 20:50:01 -2 C 2.02 g/m*3 -2 C 0 km/h
Sensor: Nr:Datum:Temp:Abs-Feuchte:Windchill:Wind:
Aussen-T/F 226 07-03-2010 21:02:01 -2.3 C 2.02 g/m*3 -2.3 C 0 km/h
227 07-03-2010 21:14:01 -2.4 C 2.01 g/m*3 -2.4 C 0 km/h
228 07-03-2010 21:26:01 -2.5 C 1.95 g/m*3 -2.5 C 0 km/h
229 07-03-2010 21:38:01 -2.5 C 1.83 g/m*3 -2.5 C 0 km/h
230 07-03-2010 21:51:03 -2.5 C 1.87 g/m*3 -2.5 C 0 km/h
231 07-03-2010 22:03:03 -2.6 C 1.82 g/m*3 -2.6 C 0 km/h
232 07-03-2010 22:15:03 -2.8 C 1.79 g/m*3 -2.8 C 0 km/h
233 07-03-2010 22:27:03 -2.8 C 1.83 g/m*3 -2.8 C 0 km/h
234 07-03-2010 22:39:03 -3 C 1.85 g/m*3 -3 C 0 km/h
235 07-03-2010 22:51:03 -3.2 C 1.9 g/m*3 -3.2 C 0 km/h
236 07-03-2010 23:03:04 -3.3 C 1.96 g/m*3 -3.3 C 0 km/h
237 07-03-2010 23:15:04 -3.4 C 1.95 g/m*3 -3.4 C 0 km/h
238 07-03-2010 23:27:04 -3.4 C 1.91 g/m*3 -3.4 C 0 km/h
239 07-03-2010 23:39:04 -3.4 C 1.83 g/m*3 -3.4 C 0 km/h
240 07-03-2010 23:51:04 -3.7 C 1.76 g/m*3 -3.7 C 0 km/h
241 08-03-2010 00:03:04 -3.9 C 1.81 g/m*3 -3.9 C 0 km/h
242 08-03-2010 00:15:04 -4 C 1.83 g/m*3 -4 C 0 km/h
243 08-03-2010 00:27:04 -4.2 C 1.77 g/m*3 -4.2 C 0 km/h
244 08-03-2010 00:39:04 -4.3 C 1.79 g/m*3 -4.3 C 0 km/h
245 08-03-2010 00:51:04 -4.5 C 1.8 g/m*3 -4.5 C 0 km/h
246 08-03-2010 01:03:04 -4.5 C 1.76 g/m*3 -4.5 C 0 km/h
247 08-03-2010 01:15:04 -4.6 C 1.75 g/m*3 -4.6 C 0 km/h
248 08-03-2010 01:27:04 -4.6 C 1.75 g/m*3 -4.6 C 0 km/h
249 08-03-2010 01:39:04 -4.7 C 1.7 g/m*3 -4.7 C 0 km/h
250 08-03-2010 01:51:04 -4.8 C 1.73 g/m*3 -4.8 C 0 km/h
Sensor: Nr:Datum:Temp:Abs-Feuchte:Windchill:Wind:
Aussen-T/F 251 08-03-2010 02:03:04 -5 C 1.7 g/m*3 -5 C 0 km/h
252 08-03-2010 02:15:04 -4.9 C 1.68 g/m*3 -4.9 C 0 km/h
253 08-03-2010 02:27:04 -5 C 1.6 g/m*3 -5 C 0 km/h
254 08-03-2010 02:39:04 -4.7 C 1.53 g/m*3 -4.7 C 0 km/h
255 08-03-2010 02:51:04 -5 C 1.63 g/m*3 -5 C 0 km/h
256 08-03-2010 03:03:04 -5.3 C 1.7 g/m*3 -5.3 C 0 km/h
257 08-03-2010 03:15:05 -5.8 C 1.67 g/m*3 -5.8 C 0 km/h
258 08-03-2010 03:27:05 -5.9 C 1.72 g/m*3 -5.9 C 0 km/h
259 08-03-2010 03:39:05 -5.8 C 1.74 g/m*3 -5.8 C 0 km/h
260 08-03-2010 03:51:05 -6 C 1.71 g/m*3 -6 C 0 km/h
261 08-03-2010 04:03:05 -6.1 C 1.73 g/m*3 -6.1 C 0 km/h
262 08-03-2010 04:15:05 -6.1 C 1.73 g/m*3 -6.1 C 0 km/h
263 08-03-2010 04:27:05 -6.4 C 1.72 g/m*3 -6.4 C 0 km/h
264 08-03-2010 04:39:05 -6.4 C 1.75 g/m*3 -6.4 C 0 km/h
265 08-03-2010 04:51:05 -6.6 C 1.73 g/m*3 -6.6 C 0 km/h
266 08-03-2010 05:03:05 -6.6 C 1.73 g/m*3 -6.6 C 0 km/h
267 08-03-2010 05:15:05 -6.8 C 1.73 g/m*3 -6.8 C 0 km/h
268 08-03-2010 05:27:05 -6.9 C 1.75 g/m*3 -6.9 C 0 km/h
269 08-03-2010 05:39:05 -7.1 C 1.72 g/m*3 -7.1 C 0 km/h
270 08-03-2010 05:51:05 -7.2 C 1.74 g/m*3 -7.2 C 0 km/h
271 08-03-2010 06:03:05 -7.3 C 1.76 g/m*3 -7.3 C 0 km/h
272 08-03-2010 06:15:05 -7.3 C 1.76 g/m*3 -7.3 C 0 km/h
273 08-03-2010 06:27:05 -7.3 C 1.76 g/m*3 -7.3 C 0 km/h
274 08-03-2010 06:39:05 -7.2 C 1.83 g/m*3 -7.2 C 0 km/h
275 08-03-2010 06:51:05 -7.4 C 1.83 g/m*3 -7.4 C 0 km/h
Sensor: Nr:Datum:Temp:Abs-Feuchte:Windchill:Wind:
Aussen-T/F 276 08-03-2010 07:03:02 -7.4 C 1.83 g/m*3 -7.4 C 0 km/h
277 08-03-2010 07:15:03 -7.5 C 1.82 g/m*3 -7.5 C 0 km/h
278 08-03-2010 07:27:03 -7.3 C 1.9 g/m*3 -7.3 C 0 km/h
279 08-03-2010 07:39:03 -7 C 1.97 g/m*3 -7 C 0 km/h
280 08-03-2010 07:51:01 -6.5 C 2.05 g/m*3 -6.5 C 0 km/h
281 08-03-2010 08:03:01 -6.1 C 2.11 g/m*3 -6.1 C 0 km/h
282 08-03-2010 08:15:01 -5.8 C 2.09 g/m*3 -5.8 C 0 km/h
283 08-03-2010 08:27:01 -5.3 C 2.1 g/m*3 -5.3 C 0 km/h
284 08-03-2010 08:39:02 -5 C 2.08 g/m*3 -5 C 0 km/h
285 08-03-2010 08:51:02 -4.5 C 2.12 g/m*3 -4.5 C 0 km/h
286 08-03-2010 09:03:02 -4.2 C 2.02 g/m*3 -4.2 C 0 km/h
287 08-03-2010 09:15:02 -3.7 C 2.06 g/m*3 -3.7 C 0 km/h
288 08-03-2010 09:27:02 -3.1 C 2.15 g/m*3 -3.1 C 0 km/h
289 08-03-2010 09:39:02 -2.5 C 2.12 g/m*3 -2.5 C 0 km/h
290 08-03-2010 09:51:02 -2.1 C 2.01 g/m*3 -2.1 C 0 km/h
291 08-03-2010 10:03:01 -1.7 C 2.02 g/m*3 -1.7 C 0 km/h
292 08-03-2010 10:15:01 -1.3 C 1.99 g/m*3 -1.3 C 0 km/h
293 08-03-2010 10:27:01 -0.6 C 1.95 g/m*3 -0.6 C 0 km/h
294 08-03-2010 10:39:02 0 C 1.94 g/m*3 0 C 0 km/h
295 08-03-2010 10:51:02 0.4 C 1.74 g/m*3 0.4 C 0 km/h
296 08-03-2010 11:03:01 0.7 C 1.78 g/m*3 0.7 C 0 km/h
297 08-03-2010 11:15:02 1.1 C 1.83 g/m*3 1.1 C 0 km/h
298 08-03-2010 11:27:02 1.3 C 1.7 g/m*3 1.3 C 0 km/h
299 08-03-2010 11:39:02 1.7 C 1.85 g/m*3 1.7 C 0 km/h
300 08-03-2010 11:51:01 2.4 C 1.77 g/m*3 2.4 C 0 km/h
Sensor: Nr:Datum:Temp:Abs-Feuchte:Windchill:Wind:
Aussen-T/F 301 08-03-2010 12:03:02 2.6 C 1.62 g/m*3 2.6 C 0 km/h
302 08-03-2010 12:15:01 3.1 C 1.68 g/m*3 3.1 C 0 km/h
303 08-03-2010 12:27:01 3.2 C 1.63 g/m*3 3.2 C 0 km/h
304 08-03-2010 12:39:02 3.4 C 1.53 g/m*3 3.4 C 0 km/h
305 08-03-2010 12:51:02 3.2 C 1.39 g/m*3 3.2 C 0 km/h
306 08-03-2010 13:03:02 3.2 C 1.51 g/m*3 3.2 C 0 km/h
307 08-03-2010 13:15:02 3.6 C 1.61 g/m*3 3.6 C 0 km/h
308 08-03-2010 13:27:02 4.5 C 1.31 g/m*3 4.5 C 0 km/h
309 08-03-2010 13:39:02 4.9 C 1.35 g/m*3 4.9 C 0 km/h
310 08-03-2010 13:51:02 4.9 C 1.35 g/m*3 4.9 C 0 km/h
311 08-03-2010 14:03:02 4.8 C 1.34 g/m*3 4.8 C 0 km/h
312 08-03-2010 14:15:02 3.9 C 1.26 g/m*3 3.9 C 0 km/h
313 08-03-2010 14:27:02 3.5 C 1.41 g/m*3 3.5 C 0 km/h
314 08-03-2010 14:39:02 3.8 C 1.44 g/m*3 3.8 C 0 km/h
315 08-03-2010 14:51:02 4.6 C 1.32 g/m*3 4.6 C 0 km/h
316 08-03-2010 15:03:01 4.3 C 1.3 g/m*3 4.3 C 0 km/h
317 08-03-2010 15:15:02 4.9 C 1.35 g/m*3 4.9 C 0 km/h
318 08-03-2010 15:27:02 5.1 C 1.37 g/m*3 5.1 C 0 km/h
319 08-03-2010 15:39:01 6.4 C 1.49 g/m*3 6.4 C 0 km/h
320 08-03-2010 15:51:02 6.7 C 1.52 g/m*3 6.7 C 0 km/h
321 08-03-2010 16:03:01 6.5 C 1.5 g/m*3 6.5 C 0 km/h
322 08-03-2010 16:15:02 6.6 C 1.51 g/m*3 6.6 C 0 km/h
323 08-03-2010 16:27:02 6.9 C 1.54 g/m*3 6.9 C 0 km/h
324 08-03-2010 16:39:01 6.7 C 1.52 g/m*3 6.7 C 0 km/h
325 08-03-2010 16:51:02 6.4 C 1.49 g/m*3 6.4 C 0 km/h
Sensor: Nr:Datum:Temp:Abs-Feuchte:Windchill:Wind:
Aussen-T/F 326 08-03-2010 17:03:02 6.2 C 1.47 g/m*3 6.2 C 0 km/h
327 08-03-2010 17:15:02 6.3 C 1.48 g/m*3 6.3 C 0 km/h
328 08-03-2010 17:27:02 5.8 C 1.43 g/m*3 5.8 C 0 km/h
329 08-03-2010 17:39:02 4.6 C 1.32 g/m*3 4.6 C 0 km/h
330 08-03-2010 17:51:02 4.2 C 1.29 g/m*3 4.2 C 0 km/h
331 08-03-2010 18:03:02 3.7 C 1.56 g/m*3 3.7 C 0 km/h
332 08-03-2010 18:15:01 2.9 C 1.71 g/m*3 2.9 C 0 km/h
333 08-03-2010 18:27:01 1.8 C 1.75 g/m*3 1.8 C 0 km/h
334 08-03-2010 18:39:02 1.4 C 1.87 g/m*3 1.4 C 0 km/h
335 08-03-2010 18:51:02 0.7 C 2.03 g/m*3 0.7 C 0 km/h
336 08-03-2010 19:03:02 0.4 C 2.04 g/m*3 0.4 C 0 km/h
337 08-03-2010 19:15:02 0.1 C 2.1 g/m*3 0.1 C 0 km/h
338 08-03-2010 19:27:02 -0.2 C 2.15 g/m*3 -0.2 C 0 km/h
339 08-03-2010 19:39:02 -0.3 C 2.04 g/m*3 -0.3 C 0 km/h
340 08-03-2010 19:51:01 -0.3 C 1.99 g/m*3 -0.3 C 0 km/h
341 08-03-2010 20:03:02 -0.6 C 2 g/m*3 -0.6 C 0 km/h
342 08-03-2010 20:15:01 -0.7 C 2.08 g/m*3 -0.7 C 0 km/h
343 08-03-2010 20:27:01 -1.1 C 2.11 g/m*3 -1.1 C 0 km/h
344 08-03-2010 20:39:01 -1.2 C 2.1 g/m*3 -1.2 C 0 km/h
345 08-03-2010 20:51:01 -1.4 C 2.15 g/m*3 -1.4 C 0 km/h
346 08-03-2010 21:03:02 -1.4 C 2.15 g/m*3 -1.4 C 0 km/h
347 08-03-2010 21:15:01 -1.5 C 2.18 g/m*3 -1.5 C 0 km/h
348 08-03-2010 21:27:01 -1.3 C 2.26 g/m*3 -1.3 C 0 km/h
349 08-03-2010 21:40:03 -1.3 C 2.26 g/m*3 -1.3 C 0 km/h
350 08-03-2010 21:52:03 -1.2 C 2.32 g/m*3 -1.2 C 0 km/h
Sensor: Nr:Datum:Temp:Abs-Feuchte:Windchill:Wind:
Aussen-T/F 351 08-03-2010 22:04:03 -1.2 C 2.36 g/m*3 -1.2 C 0 km/h
352 08-03-2010 22:16:03 -1.2 C 2.32 g/m*3 -1.2 C 0 km/h
353 08-03-2010 22:28:03 -1.1 C 2.24 g/m*3 -1.1 C 0 km/h
354 08-03-2010 22:40:03 -0.9 C 2.09 g/m*3 -0.9 C 0 km/h
355 08-03-2010 22:52:03 -1 C 2.08 g/m*3 -1 C 0 km/h
356 08-03-2010 23:04:03 -1.4 C 2.07 g/m*3 -1.4 C 0 km/h
357 08-03-2010 23:16:04 -1.8 C 2.05 g/m*3 -1.8 C 0 km/h
358 08-03-2010 23:28:04 -1.9 C 2.04 g/m*3 -1.9 C 0 km/h
359 08-03-2010 23:40:04 -1.9 C 2.08 g/m*3 -1.9 C 0 km/h
360 08-03-2010 23:52:04 -2 C 2.11 g/m*3 -2 C 0 km/h
361 09-03-2010 00:04:04 -2.1 C 2.13 g/m*3 -2.1 C 0 km/h
362 09-03-2010 00:16:04 -2.2 C 2.12 g/m*3 -2.2 C 0 km/h
363 09-03-2010 00:28:04 -2.4 C 2.09 g/m*3 -2.4 C 0 km/h
364 09-03-2010 00:40:04 -2.4 C 2.09 g/m*3 -2.4 C 0 km/h
365 09-03-2010 00:52:04 -2.6 C 2.14 g/m*3 -2.6 C 0 km/h
366 09-03-2010 01:04:04 -2.8 C 2.15 g/m*3 -2.8 C 0 km/h
367 09-03-2010 01:16:04 -3 C 2.2 g/m*3 -3 C 0 km/h
368 09-03-2010 01:28:04 -3.1 C 2.22 g/m*3 -3.1 C 0 km/h
369 09-03-2010 01:40:04 -3.2 C 2.21 g/m*3 -3.2 C 0 km/h
370 09-03-2010 01:52:04 -3.3 C 2.19 g/m*3 -3.3 C 0 km/h
371 09-03-2010 02:04:04 -3.4 C 2.18 g/m*3 -3.4 C 0 km/h
372 09-03-2010 02:16:05 -3.4 C 2.21 g/m*3 -3.4 C 0 km/h
373 09-03-2010 02:28:05 -3.3 C 2.23 g/m*3 -3.3 C 0 km/h
374 09-03-2010 02:40:05 -3.3 C 2.23 g/m*3 -3.3 C 0 km/h
375 09-03-2010 02:52:05 -3.5 C 2.24 g/m*3 -3.5 C 0 km/h
Sensor: Nr:Datum:Temp:Abs-Feuchte:Windchill:Wind:
Aussen-T/F 376 09-03-2010 03:04:05 -3.7 C 2.24 g/m*3 -3.7 C 0 km/h
377 09-03-2010 03:16:05 -3.8 C 2.23 g/m*3 -3.8 C 0 km/h
378 09-03-2010 03:28:05 -3.9 C 2.25 g/m*3 -3.9 C 0 km/h
379 09-03-2010 03:40:05 -4 C 2.27 g/m*3 -4 C 0 km/h
380 09-03-2010 03:52:05 -4.1 C 2.29 g/m*3 -4.1 C 0 km/h
381 09-03-2010 04:04:05 -4.2 C 2.27 g/m*3 -4.2 C 0 km/h
382 09-03-2010 04:16:05 -4.3 C 2.29 g/m*3 -4.3 C 0 km/h
383 09-03-2010 04:28:05 -4.5 C 2.22 g/m*3 -4.5 C 0 km/h
384 09-03-2010 04:40:05 -4.5 C 2.19 g/m*3 -4.5 C 0 km/h
385 09-03-2010 04:52:05 -4.5 C 2.19 g/m*3 -4.5 C 0 km/h
386 09-03-2010 05:04:05 -4.6 C 2.17 g/m*3 -4.6 C 0 km/h
387 09-03-2010 05:16:05 -4.7 C 2.16 g/m*3 -4.7 C 0 km/h
388 09-03-2010 05:28:05 -4.8 C 2.14 g/m*3 -4.8 C 0 km/h
389 09-03-2010 05:40:05 -4.9 C 2.16 g/m*3 -4.9 C 0 km/h
390 09-03-2010 05:52:05 -4.9 C 2.16 g/m*3 -4.9 C 0 km/h
391 09-03-2010 06:04:05 -4.8 C 2.14 g/m*3 -4.8 C 0 km/h
392 09-03-2010 06:16:05 -4.8 C 2.14 g/m*3 -4.8 C 0 km/h
393 09-03-2010 06:28:05 -4.9 C 2.13 g/m*3 -4.9 C 0 km/h
394 09-03-2010 06:40:06 -5.2 C 2.08 g/m*3 -5.2 C 0 km/h
395 09-03-2010 06:52:06 -5.3 C 2.07 g/m*3 -5.3 C 0 km/h
396 09-03-2010 07:04:03 -5.6 C 2.05 g/m*3 -5.6 C 0 km/h
397 09-03-2010 07:16:03 -5.6 C 2.09 g/m*3 -5.6 C 0 km/h
398 09-03-2010 07:28:03 -5.4 C 2.15 g/m*3 -5.4 C 0 km/h
399 09-03-2010 07:40:03 -5.3 C 2.17 g/m*3 -5.3 C 0 km/h
400 09-03-2010 07:52:02 -5.3 C 2.17 g/m*3 -5.3 C 0 km/h
Sensor: Nr:Datum:Temp:Abs-Feuchte:Windchill:Wind:
Aussen-T/F 401 09-03-2010 08:04:02 -5.2 C 2.18 g/m*3 -5.2 C 0 km/h
402 09-03-2010 08:16:02 -5 C 2.18 g/m*3 -5 C 0 km/h
403 09-03-2010 08:28:02 -4.9 C 2.16 g/m*3 -4.9 C 0 km/h
404 09-03-2010 08:40:02 -4.8 C 2.14 g/m*3 -4.8 C 0 km/h
405 09-03-2010 08:52:02 -4.7 C 2.16 g/m*3 -4.7 C 0 km/h
406 09-03-2010 09:04:01 -4.5 C 2.19 g/m*3 -4.5 C 0 km/h
407 09-03-2010 09:16:02 -4.2 C 2.16 g/m*3 -4.2 C 0 km/h
408 09-03-2010 09:28:02 -3.9 C 2.17 g/m*3 -3.9 C 0 km/h
409 09-03-2010 09:40:01 -3.4 C 2.18 g/m*3 -3.4 C 0 km/h
410 09-03-2010 09:52:02 -2.7 C 2.13 g/m*3 -2.7 C 0 km/h
411 09-03-2010 10:04:01 -2.4 C 2.09 g/m*3 -2.4 C 0 km/h
412 09-03-2010 10:16:01 -1.9 C 2.08 g/m*3 -1.9 C 0 km/h
413 09-03-2010 10:28:01 -1.2 C 2.05 g/m*3 -1.2 C 0 km/h
414 09-03-2010 10:40:02 -0.7 C 1.94 g/m*3 -0.7 C 0 km/h
415 09-03-2010 10:52:02 -0.4 C 1.84 g/m*3 -0.4 C 0 km/h
416 09-03-2010 11:04:01 -0.1 C 1.73 g/m*3 -0.1 C 0 km/h
417 09-03-2010 11:16:02 0.3 C 1.63 g/m*3 0.3 C 0 km/h
418 09-03-2010 11:28:02 0.5 C 1.5 g/m*3 0.5 C 0 km/h
419 09-03-2010 11:40:02 0.5 C 1.3 g/m*3 0.5 C 0 km/h
420 09-03-2010 11:52:01 0.8 C 1.28 g/m*3 0.8 C 0 km/h
421 09-03-2010 12:04:02 1 C 1.09 g/m*3 1 C 0 km/h
422 09-03-2010 12:16:01 1.3 C 1.06 g/m*3 1.3 C 0 km/h
423 09-03-2010 12:28:01 1.6 C 1.14 g/m*3 1.6 C 0 km/h
424 09-03-2010 12:40:02 1.8 C 1.1 g/m*3 1.8 C 0 km/h
425 09-03-2010 12:52:02 2.2 C 1.13 g/m*3 2.2 C 0 km/h
Sensor: Nr:Datum:Temp:Abs-Feuchte:Windchill:Wind:
Aussen-T/F 426 09-03-2010 13:04:02 2.2 C 1.13 g/m*3 2.2 C 0 km/h
427 09-03-2010 13:16:01 2.9 C 1.18 g/m*3 2.9 C 0 km/h
428 09-03-2010 13:28:01 3.2 C 1.21 g/m*3 3.2 C 0 km/h
429 09-03-2010 13:40:02 3.5 C 1.23 g/m*3 3.5 C 0 km/h
430 09-03-2010 13:52:02 3.7 C 1.25 g/m*3 3.7 C 0 km/h
431 09-03-2010 14:04:02 3.9 C 1.26 g/m*3 3.9 C 0 km/h
432 09-03-2010 14:16:02 4.5 C 1.31 g/m*3 4.5 C 0 km/h
433 09-03-2010 14:28:02 4.9 C 1.35 g/m*3 4.9 C 0 km/h
434 09-03-2010 14:40:02 5.3 C 1.39 g/m*3 5.3 C 0 km/h
435 09-03-2010 14:52:02 5.7 C 1.42 g/m*3 5.7 C 0 km/h
436 09-03-2010 15:04:02 5.7 C 1.42 g/m*3 5.7 C 0 km/h
437 09-03-2010 15:16:02 5.7 C 1.42 g/m*3 5.7 C 0 km/h
438 09-03-2010 15:28:02 5.7 C 1.42 g/m*3 5.7 C 0 km/h
439 09-03-2010 15:40:02 6.2 C 1.47 g/m*3 6.2 C 0 km/h
440 09-03-2010 15:52:02 6 C 1.45 g/m*3 6 C 0 km/h
441 09-03-2010 16:04:02 5.9 C 1.44 g/m*3 5.9 C 0 km/h
442 09-03-2010 16:16:02 5.8 C 1.43 g/m*3 5.8 C 0 km/h
443 09-03-2010 16:28:02 6.3 C 1.48 g/m*3 6.3 C 0 km/h
444 09-03-2010 16:40:02 6.3 C 1.48 g/m*3 6.3 C 0 km/h
445 09-03-2010 16:52:02 6.2 C 1.47 g/m*3 6.2 C 0 km/h
446 09-03-2010 17:04:02 5.5 C 1.4 g/m*3 5.5 C 0 km/h
447 09-03-2010 17:16:03 5.2 C 1.38 g/m*3 5.2 C 0 km/h
448 09-03-2010 17:28:03 4.8 C 1.34 g/m*3 4.8 C 0 km/h
449 09-03-2010 17:40:02 4.4 C 1.31 g/m*3 4.4 C 0 km/h
450 09-03-2010 17:52:02 4 C 1.27 g/m*3 4 C 0 km/h
Sensor: Nr:Datum:Temp:Abs-Feuchte:Windchill:Wind:
Aussen-T/F 451 09-03-2010 18:04:02 3.2 C 1.21 g/m*3 3.2 C 0 km/h
452 09-03-2010 18:16:02 2.4 C 1.14 g/m*3 2.4 C 0 km/h
453 09-03-2010 18:28:02 1.5 C 1.07 g/m*3 1.5 C 0 km/h
454 09-03-2010 18:40:02 1.1 C 1.05 g/m*3 1.1 C 0 km/h
455 09-03-2010 18:52:02 0.7 C 1.02 g/m*3 0.7 C 0 km/h
456 09-03-2010 19:04:02 0.5 C 1 g/m*3 0.5 C 0 km/h
457 09-03-2010 19:16:02 0.2 C 0.98 g/m*3 0.2 C 0 km/h
458 09-03-2010 19:28:02 -0.1 C 0.96 g/m*3 -0.1 C 0 km/h
459 09-03-2010 19:40:02 -0.3 C 0.95 g/m*3 -0.3 C 0 km/h
460 09-03-2010 19:52:02 -0.6 C 0.93 g/m*3 -0.6 C 0 km/h
461 09-03-2010 20:04:01 -0.6 C 0.93 g/m*3 -0.6 C 0 km/h
462 09-03-2010 20:16:02 -0.8 C 0.92 g/m*3 -0.8 C 0 km/h
463 09-03-2010 20:28:03 -1.2 C 0.89 g/m*3 -1.2 C 0 km/h
464 09-03-2010 20:40:01 -1.4 C 0.88 g/m*3 -1.4 C 0 km/h
465 09-03-2010 20:52:02 -1.5 C 0.92 g/m*3 -1.5 C 0 km/h
466 09-03-2010 21:04:01 -1.7 C 0.9 g/m*3 -1.7 C 0 km/h
467 09-03-2010 21:16:02 -1.7 C 0.86 g/m*3 -1.7 C 0 km/h
468 09-03-2010 21:28:02 -1.9 C 0.85 g/m*3 -1.9 C 0 km/h
469 09-03-2010 21:40:02 -1.8 C 0.85 g/m*3 -1.8 C 0 km/h
470 09-03-2010 21:52:02 -1.9 C 0.85 g/m*3 -1.9 C 0 km/h
471 09-03-2010 22:04:02 -1.8 C 0.85 g/m*3 -1.8 C 0 km/h
472 09-03-2010 22:16:02 -1.7 C 0.86 g/m*3 -1.7 C 0 km/h
473 09-03-2010 22:28:02 -1.7 C 0.86 g/m*3 -1.7 C 0 km/h
474 09-03-2010 22:40:02 -1.8 C 0.85 g/m*3 -1.8 C 0 km/h
475 09-03-2010 22:52:02 -1.8 C 0.9 g/m*3 -1.8 C 0 km/h
Sensor: Nr:Datum:Temp:Abs-Feuchte:Windchill:Wind:
Aussen-T/F 476 09-03-2010 23:05:02 -2 C 1.1 g/m*3 -2 C 0 km/h
477 09-03-2010 23:17:02 -2.3 C 1.24 g/m*3 -2.3 C 0 km/h
478 09-03-2010 23:29:02 -2.4 C 1.27 g/m*3 -2.4 C 0 km/h
479 09-03-2010 23:41:02 -2.5 C 1.34 g/m*3 -2.5 C 0 km/h
480 09-03-2010 23:53:02 -2.6 C 1.41 g/m*3 -2.6 C 0 km/h
481 10-03-2010 00:05:02 -2.7 C 1.48 g/m*3 -2.7 C 0 km/h
482 10-03-2010 00:17:02 -2.8 C 1.55 g/m*3 -2.8 C 0 km/h
483 10-03-2010 00:29:02 -2.7 C 1.56 g/m*3 -2.7 C 0 km/h
484 10-03-2010 00:41:02 -2.6 C 1.58 g/m*3 -2.6 C 0 km/h
485 10-03-2010 00:53:02 -2.7 C 1.6 g/m*3 -2.7 C 0 km/h
486 10-03-2010 01:05:03 -3 C 1.65 g/m*3 -3 C 0 km/h
487 10-03-2010 01:17:03 -3.1 C 1.68 g/m*3 -3.1 C 0 km/h
488 10-03-2010 01:29:03 -3.2 C 1.7 g/m*3 -3.2 C 0 km/h
489 10-03-2010 01:41:03 -3 C 1.73 g/m*3 -3 C 0 km/h
490 10-03-2010 01:53:03 -3.4 C 1.72 g/m*3 -3.4 C 0 km/h
491 10-03-2010 02:05:03 -3.4 C 1.76 g/m*3 -3.4 C 0 km/h
492 10-03-2010 02:17:03 -3.5 C 1.74 g/m*3 -3.5 C 0 km/h
493 10-03-2010 02:29:03 -3.6 C 1.77 g/m*3 -3.6 C 0 km/h
494 10-03-2010 02:41:03 -3.8 C 1.78 g/m*3 -3.8 C 0 km/h
495 10-03-2010 02:53:03 -3.8 C 1.78 g/m*3 -3.8 C 0 km/h
496 10-03-2010 03:05:03 -3.8 C 1.78 g/m*3 -3.8 C 0 km/h
497 10-03-2010 03:17:03 -3.8 C 1.82 g/m*3 -3.8 C 0 km/h
498 10-03-2010 03:29:03 -3.9 C 1.81 g/m*3 -3.9 C 0 km/h
499 10-03-2010 03:41:03 -3.9 C 1.77 g/m*3 -3.9 C 0 km/h
500 10-03-2010 03:53:03 -3.9 C 1.77 g/m*3 -3.9 C 0 km/h
Sensor: Nr:Datum:Temp:Abs-Feuchte:Windchill:Wind:
Aussen-T/F 501 10-03-2010 04:05:03 -3.6 C 1.81 g/m*3 -3.6 C 0 km/h
502 10-03-2010 04:17:03 -3.5 C 1.78 g/m*3 -3.5 C 0 km/h
503 10-03-2010 04:29:03 -3.5 C 1.74 g/m*3 -3.5 C 0 km/h
504 10-03-2010 04:41:03 -3.5 C 1.74 g/m*3 -3.5 C 0 km/h
505 10-03-2010 04:53:03 -3.5 C 1.71 g/m*3 -3.5 C 0 km/h
506 10-03-2010 05:05:03 -3.6 C 1.69 g/m*3 -3.6 C 0 km/h
507 10-03-2010 05:17:03 -3.5 C 1.71 g/m*3 -3.5 C 0 km/h
508 10-03-2010 05:29:04 -3.5 C 1.71 g/m*3 -3.5 C 0 km/h
509 10-03-2010 05:41:04 -3.5 C 1.71 g/m*3 -3.5 C 0 km/h
510 10-03-2010 05:53:04 -3.4 C 1.68 g/m*3 -3.4 C 0 km/h
511 10-03-2010 06:05:04 -3.6 C 1.66 g/m*3 -3.6 C 0 km/h
512 10-03-2010 06:17:04 -3.6 C 1.69 g/m*3 -3.6 C 0 km/h
513 10-03-2010 06:29:04 -3.9 C 1.69 g/m*3 -3.9 C 0 km/h
514 10-03-2010 06:41:04 -3.8 C 1.67 g/m*3 -3.8 C 0 km/h
515 10-03-2010 06:53:04 -3.7 C 1.68 g/m*3 -3.7 C 0 km/h
516 10-03-2010 07:05:02 -3.7 C 1.68 g/m*3 -3.7 C 0 km/h
517 10-03-2010 07:17:02 -3.6 C 1.69 g/m*3 -3.6 C 0 km/h
518 10-03-2010 07:29:02 -3.6 C 1.69 g/m*3 -3.6 C 0 km/h
519 10-03-2010 07:41:02 -3.4 C 1.72 g/m*3 -3.4 C 0 km/h
520 10-03-2010 07:53:02 -3 C 1.69 g/m*3 -3 C 0 km/h
521 10-03-2010 08:05:02 -2.7 C 1.69 g/m*3 -2.7 C 0 km/h
522 10-03-2010 08:17:02 -2.5 C 1.67 g/m*3 -2.5 C 0 km/h
523 10-03-2010 08:29:02 -2.1 C 1.67 g/m*3 -2.1 C 0 km/h
524 10-03-2010 08:41:02 -1.8 C 1.62 g/m*3 -1.8 C 0 km/h
525 10-03-2010 08:53:02 -1.3 C 1.51 g/m*3 -1.3 C 0 km/h
Sensor: Nr:Datum:Temp:Abs-Feuchte:Windchill:Wind:
Aussen-T/F 526 10-03-2010 09:05:02 -1 C 1.4 g/m*3 -1 C 0 km/h
527 10-03-2010 09:17:02 -0.8 C 1.38 g/m*3 -0.8 C 0 km/h
528 10-03-2010 09:29:02 -0.4 C 1.23 g/m*3 -0.4 C 0 km/h
529 10-03-2010 09:41:01 -0.1 C 1.2 g/m*3 -0.1 C 0 km/h
530 10-03-2010 09:53:01 0.5 C 1 g/m*3 0.5 C 0 km/h
531 10-03-2010 10:05:01 1.1 C 1.05 g/m*3 1.1 C 0 km/h
532 10-03-2010 10:17:02 1.4 C 1.07 g/m*3 1.4 C 0 km/h
533 10-03-2010 10:29:02 1.8 C 1.1 g/m*3 1.8 C 0 km/h
534 10-03-2010 10:41:01 2.3 C 1.13 g/m*3 2.3 C 0 km/h
535 10-03-2010 10:53:02 2.8 C 1.17 g/m*3 2.8 C 0 km/h
536 10-03-2010 11:05:01 3.3 C 1.21 g/m*3 3.3 C 0 km/h
537 10-03-2010 11:17:02 3.6 C 1.24 g/m*3 3.6 C 0 km/h
538 10-03-2010 11:29:02 3.9 C 1.26 g/m*3 3.9 C 0 km/h
539 10-03-2010 11:41:01 4.1 C 1.28 g/m*3 4.1 C 0 km/h
540 10-03-2010 11:53:02 4.3 C 1.62 g/m*3 4.3 C 0 km/h
541 10-03-2010 12:05:02 4.6 C 1.52 g/m*3 4.6 C 0 km/h
542 10-03-2010 12:17:02 5.1 C 1.57 g/m*3 5.1 C 0 km/h
543 10-03-2010 12:29:02 5.7 C 1.49 g/m*3 5.7 C 0 km/h
544 10-03-2010 12:41:01 6.1 C 1.46 g/m*3 6.1 C 0 km/h
545 10-03-2010 12:53:02 6.5 C 1.5 g/m*3 6.5 C 0 km/h
546 10-03-2010 13:05:01 6.6 C 1.51 g/m*3 6.6 C 0 km/h
547 10-03-2010 13:17:01 7 C 1.55 g/m*3 7 C 0 km/h
548 10-03-2010 13:29:01 7.4 C 1.59 g/m*3 7.4 C 0 km/h
549 10-03-2010 13:41:02 7.6 C 1.61 g/m*3 7.6 C 0 km/h
550 10-03-2010 13:53:02 8 C 1.65 g/m*3 8 C 0 km/h
Sensor: Nr:Datum:Temp:Abs-Feuchte:Windchill:Wind:
Aussen-T/F 551 10-03-2010 14:05:02 8.2 C 1.67 g/m*3 8.2 C 0 km/h
552 10-03-2010 14:17:02 8.2 C 1.67 g/m*3 8.2 C 0 km/h
553 10-03-2010 14:29:02 8.3 C 1.69 g/m*3 8.3 C 0 km/h
554 10-03-2010 14:41:02 8.5 C 1.71 g/m*3 8.5 C 0 km/h
555 10-03-2010 14:53:02 8.2 C 1.67 g/m*3 8.2 C 0 km/h
556 10-03-2010 15:05:03 8.7 C 1.73 g/m*3 8.7 C 0 km/h
557 10-03-2010 15:17:02 9.3 C 1.8 g/m*3 9.3 C 0 km/h
558 10-03-2010 15:29:02 8.7 C 1.73 g/m*3 8.7 C 0 km/h
559 10-03-2010 15:41:02 8.4 C 1.7 g/m*3 8.4 C 0 km/h
560 10-03-2010 15:53:01 8.8 C 1.74 g/m*3 8.8 C 0 km/h
561 10-03-2010 16:05:02 8.7 C 1.73 g/m*3 8.7 C 0 km/h
562 10-03-2010 16:17:01 8.3 C 1.69 g/m*3 8.3 C 0 km/h
563 10-03-2010 16:29:01 7.8 C 1.63 g/m*3 7.8 C 0 km/h
564 10-03-2010 16:41:01 7.4 C 1.59 g/m*3 7.4 C 0 km/h
565 10-03-2010 16:53:01 7.1 C 1.56 g/m*3 7.1 C 0 km/h
566 10-03-2010 17:05:02 6.8 C 1.53 g/m*3 6.8 C 0 km/h
567 10-03-2010 17:17:02 6.5 C 1.5 g/m*3 6.5 C 0 km/h
568 10-03-2010 17:29:02 6.2 C 1.47 g/m*3 6.2 C 0 km/h
569 10-03-2010 17:41:01 6.1 C 1.46 g/m*3 6.1 C 0 km/h
570 10-03-2010 17:53:01 5.7 C 1.42 g/m*3 5.7 C 0 km/h
571 10-03-2010 18:05:01 5.4 C 1.4 g/m*3 5.4 C 0 km/h
572 10-03-2010 18:17:02 5 C 1.36 g/m*3 5 C 0 km/h
573 10-03-2010 18:29:02 4.4 C 1.5 g/m*3 4.4 C 0 km/h
574 10-03-2010 18:41:01 4 C 1.78 g/m*3 4 C 0 km/h
575 10-03-2010 18:53:02 3.7 C 1.93 g/m*3 3.7 C 0 km/h
Sensor: Nr:Datum:Temp:Abs-Feuchte:Windchill:Wind:
Aussen-T/F 576 10-03-2010 19:05:01 3.7 C 1.81 g/m*3 3.7 C 0 km/h
577 10-03-2010 19:17:02 3.5 C 1.72 g/m*3 3.5 C 0 km/h
578 10-03-2010 19:29:02 3.3 C 1.7 g/m*3 3.3 C 0 km/h
579 10-03-2010 19:41:01 2.9 C 1.89 g/m*3 2.9 C 0 km/h
580 10-03-2010 19:53:03 2.7 C 1.81 g/m*3 2.7 C 0 km/h
581 10-03-2010 20:05:02 2.7 C 1.81 g/m*3 2.7 C 0 km/h
582 10-03-2010 20:17:02 2.5 C 1.78 g/m*3 2.5 C 0 km/h
583 10-03-2010 20:29:02 2.4 C 1.83 g/m*3 2.4 C 0 km/h
584 10-03-2010 20:41:02 2.3 C 1.76 g/m*3 2.3 C 0 km/h
585 10-03-2010 20:53:02 2.2 C 1.8 g/m*3 2.2 C 0 km/h
586 10-03-2010 21:05:01 2.2 C 1.75 g/m*3 2.2 C 0 km/h
587 10-03-2010 21:18:02 2.1 C 1.73 g/m*3 2.1 C 0 km/h
588 10-03-2010 21:30:02 1.9 C 1.93 g/m*3 1.9 C 0 km/h
589 10-03-2010 21:42:02 1.8 C 1.92 g/m*3 1.8 C 0 km/h
590 10-03-2010 21:54:02 1.7 C 1.96 g/m*3 1.7 C 0 km/h
591 10-03-2010 22:06:02 1.5 C 1.99 g/m*3 1.5 C 0 km/h
592 10-03-2010 22:18:02 1.5 C 1.99 g/m*3 1.5 C 0 km/h
593 10-03-2010 22:30:02 1.4 C 2.03 g/m*3 1.4 C 0 km/h
594 10-03-2010 22:42:02 1.4 C 2.03 g/m*3 1.4 C 0 km/h
595 10-03-2010 22:54:02 1.4 C 2.08 g/m*3 1.4 C 0 km/h
596 10-03-2010 23:06:02 1.1 C 2.09 g/m*3 1.1 C 0 km/h
597 10-03-2010 23:18:02 0.8 C 2.15 g/m*3 0.8 C 0 km/h
598 10-03-2010 23:30:02 0.6 C 2.22 g/m*3 0.6 C 0 km/h
599 10-03-2010 23:42:02 0.4 C 2.24 g/m*3 0.4 C 0 km/h
600 10-03-2010 23:54:02 0.2 C 2.26 g/m*3 0.2 C 0 km/h
Sensor: Nr:Datum:Temp:Abs-Feuchte:Windchill:Wind:
Aussen-T/F 601 11-03-2010 00:06:02 0 C 2.33 g/m*3 0 C 0 km/h
602 11-03-2010 00:18:02 0 C 2.33 g/m*3 0 C 0 km/h
603 11-03-2010 00:30:02 -0.2 C 2.29 g/m*3 -0.2 C 0 km/h
604 11-03-2010 00:42:02 -0.2 C 2.29 g/m*3 -0.2 C 0 km/h
605 11-03-2010 00:54:02 -0.2 C 2.29 g/m*3 -0.2 C 0 km/h
606 11-03-2010 01:06:02 -0.3 C 2.28 g/m*3 -0.3 C 0 km/h
607 11-03-2010 01:18:03 -0.5 C 2.25 g/m*3 -0.5 C 0 km/h
608 11-03-2010 01:30:03 -0.9 C 2.28 g/m*3 -0.9 C 0 km/h
609 11-03-2010 01:42:03 -0.9 C 2.37 g/m*3 -0.9 C 0 km/h
610 11-03-2010 01:54:03 -1.1 C 2.29 g/m*3 -1.1 C 0 km/h
611 11-03-2010 02:06:03 -1 C 2.31 g/m*3 -1 C 0 km/h
612 11-03-2010 02:18:03 -1.1 C 2.29 g/m*3 -1.1 C 0 km/h
613 11-03-2010 02:30:03 -1.3 C 2.3 g/m*3 -1.3 C 0 km/h
614 11-03-2010 02:42:03 -1.3 C 2.3 g/m*3 -1.3 C 0 km/h
615 11-03-2010 02:54:03 -1.4 C 2.33 g/m*3 -1.4 C 0 km/h
616 11-03-2010 03:06:03 -1.5 C 2.31 g/m*3 -1.5 C 0 km/h
617 11-03-2010 03:18:03 -1.5 C 2.36 g/m*3 -1.5 C 0 km/h
618 11-03-2010 03:30:03 -1.7 C 2.32 g/m*3 -1.7 C 0 km/h
619 11-03-2010 03:42:03 -1.8 C 2.31 g/m*3 -1.8 C 0 km/h
620 11-03-2010 03:54:03 -1.9 C 2.29 g/m*3 -1.9 C 0 km/h
621 11-03-2010 04:06:03 -2 C 2.32 g/m*3 -2 C 0 km/h
622 11-03-2010 04:18:03 -2 C 2.32 g/m*3 -2 C 0 km/h
623 11-03-2010 04:30:03 -2.1 C 2.3 g/m*3 -2.1 C 0 km/h
624 11-03-2010 04:42:03 -2.2 C 2.29 g/m*3 -2.2 C 0 km/h
625 11-03-2010 04:54:03 -2.3 C 2.31 g/m*3 -2.3 C 0 km/h
Sensor: Nr:Datum:Temp:Abs-Feuchte:Windchill:Wind:
Aussen-T/F 626 11-03-2010 05:06:03 -2.6 C 2.26 g/m*3 -2.6 C 0 km/h
627 11-03-2010 05:18:03 -3 C 2.2 g/m*3 -3 C 0 km/h
628 11-03-2010 05:30:04 -3 C 2.32 g/m*3 -3 C 0 km/h
629 11-03-2010 05:42:04 -3 C 2.4 g/m*3 -3 C 0 km/h
630 11-03-2010 05:54:04 -2.8 C 2.39 g/m*3 -2.8 C 0 km/h
631 11-03-2010 06:06:04 -2.7 C 2.37 g/m*3 -2.7 C 0 km/h
632 11-03-2010 06:18:04 -2.8 C 2.35 g/m*3 -2.8 C 0 km/h
633 11-03-2010 06:30:04 -2.8 C 2.39 g/m*3 -2.8 C 0 km/h
634 11-03-2010 06:42:04 -2.8 C 2.39 g/m*3 -2.8 C 0 km/h
635 11-03-2010 06:54:04 -2.8 C 2.43 g/m*3 -2.8 C 0 km/h
636 11-03-2010 07:06:02 -2.9 C 2.45 g/m*3 -2.9 C 0 km/h
637 11-03-2010 07:18:01 -3 C 2.44 g/m*3 -3 C 0 km/h
638 11-03-2010 07:30:01 -3 C 2.47 g/m*3 -3 C 0 km/h
639 11-03-2010 07:42:02 -2.9 C 2.49 g/m*3 -2.9 C 0 km/h
640 11-03-2010 07:54:01 -2.7 C 2.53 g/m*3 -2.7 C 0 km/h
641 11-03-2010 08:06:02 -2.4 C 2.58 g/m*3 -2.4 C 0 km/h
642 11-03-2010 08:18:02 -2.1 C 2.55 g/m*3 -2.1 C 0 km/h
643 11-03-2010 08:30:02 -1.8 C 2.52 g/m*3 -1.8 C 0 km/h
644 11-03-2010 08:42:01 -1.3 C 2.52 g/m*3 -1.3 C 0 km/h
645 11-03-2010 08:54:02 -0.9 C 2.55 g/m*3 -0.9 C 0 km/h
646 11-03-2010 09:06:01 -0.7 C 2.54 g/m*3 -0.7 C 0 km/h
647 11-03-2010 09:18:02 -0.4 C 2.45 g/m*3 -0.4 C 0 km/h
648 11-03-2010 09:30:03 -0.3 C 2.42 g/m*3 -0.3 C 0 km/h
649 11-03-2010 09:42:01 -0.2 C 2.39 g/m*3 -0.2 C 0 km/h
650 11-03-2010 09:54:02 -0.2 C 2.29 g/m*3 -0.2 C 0 km/h
Sensor: Nr:Datum:Temp:Abs-Feuchte:Windchill:Wind:
Aussen-T/F 651 11-03-2010 10:06:02 0.1 C 2.34 g/m*3 0.1 C 0 km/h
652 11-03-2010 10:18:02 0.2 C 2.36 g/m*3 0.2 C 0 km/h
653 11-03-2010 10:30:02 0.2 C 2.31 g/m*3 0.2 C 0 km/h
654 11-03-2010 10:42:03 0.4 C 2.39 g/m*3 0.4 C 0 km/h
655 11-03-2010 10:54:02 0.9 C 2.42 g/m*3 0.9 C 0 km/h
656 11-03-2010 11:06:01 1.1 C 2.35 g/m*3 1.1 C 0 km/h
657 11-03-2010 11:18:02 1.4 C 2.35 g/m*3 1.4 C 0 km/h
658 11-03-2010 11:30:02 1.6 C 2.27 g/m*3 1.6 C 0 km/h
659 11-03-2010 11:42:02 1.9 C 2.26 g/m*3 1.9 C 0 km/h
660 11-03-2010 11:54:02 2 C 2.17 g/m*3 2 C 0 km/h
661 11-03-2010 12:06:03 2.2 C 2.2 g/m*3 2.2 C 0 km/h
662 11-03-2010 12:18:02 2.7 C 2.21 g/m*3 2.7 C 0 km/h
663 11-03-2010 12:30:02 3.1 C 2.04 g/m*3 3.1 C 0 km/h
664 11-03-2010 12:42:02 3.6 C 1.98 g/m*3 3.6 C 0 km/h
665 11-03-2010 12:54:02 4 C 1.91 g/m*3 4 C 0 km/h
666 11-03-2010 13:06:02 4.5 C 1.84 g/m*3 4.5 C 0 km/h
667 11-03-2010 13:18:01 4.8 C 1.68 g/m*3 4.8 C 0 km/h
668 11-03-2010 13:30:01 5.1 C 1.78 g/m*3 5.1 C 0 km/h
669 11-03-2010 13:42:02 5.9 C 1.87 g/m*3 5.9 C 0 km/h
670 11-03-2010 13:54:02 5.6 C 1.84 g/m*3 5.6 C 0 km/h
671 11-03-2010 14:06:02 6.1 C 1.9 g/m*3 6.1 C 0 km/h
672 11-03-2010 14:18:01 6.5 C 1.95 g/m*3 6.5 C 0 km/h
673 11-03-2010 14:30:01 6.2 C 2.13 g/m*3 6.2 C 0 km/h
674 11-03-2010 14:42:02 6.6 C 2.04 g/m*3 6.6 C 0 km/h
675 11-03-2010 14:54:02 6.3 C 2.07 g/m*3 6.3 C 0 km/h
Sensor: Nr:Datum:Temp:Abs-Feuchte:Windchill:Wind:
Aussen-T/F 676 11-03-2010 15:06:02 5.7 C 2.35 g/m*3 5.7 C 0 km/h
677 11-03-2010 15:18:01 5.9 C 2.45 g/m*3 5.9 C 0 km/h
678 11-03-2010 15:30:01 4.9 C 2.57 g/m*3 4.9 C 0 km/h
679 11-03-2010 15:42:02 4.6 C 2.65 g/m*3 4.6 C 0 km/h
680 11-03-2010 15:54:02 4.8 C 2.68 g/m*3 4.8 C 0 km/h
681 11-03-2010 16:06:02 4.7 C 2.66 g/m*3 4.7 C 0 km/h
682 11-03-2010 16:18:02 4.8 C 2.68 g/m*3 4.8 C 0 km/h
683 11-03-2010 16:30:02 4.3 C 2.66 g/m*3 4.3 C 0 km/h
684 11-03-2010 16:42:02 4.2 C 2.71 g/m*3 4.2 C 0 km/h
685 11-03-2010 16:54:02 4 C 2.67 g/m*3 4 C 0 km/h
686 11-03-2010 17:06:02 3.9 C 2.78 g/m*3 3.9 C 0 km/h
687 11-03-2010 17:18:02 3.6 C 2.79 g/m*3 3.6 C 0 km/h
688 11-03-2010 17:30:02 3.1 C 2.75 g/m*3 3.1 C 0 km/h
689 11-03-2010 17:42:04 2.8 C 2.82 g/m*3 2.8 C 0 km/h
690 11-03-2010 17:54:02 2.2 C 2.76 g/m*3 2.2 C 0 km/h
691 11-03-2010 18:06:01 2 C 2.78 g/m*3 2 C 0 km/h
692 11-03-2010 18:18:02 1.6 C 2.87 g/m*3 1.6 C 0 km/h
693 11-03-2010 18:30:02 1.2 C 2.84 g/m*3 1.2 C 0 km/h
694 11-03-2010 18:42:02 0.9 C 2.89 g/m*3 0.9 C 0 km/h
695 11-03-2010 18:54:02 0.7 C 2.9 g/m*3 0.7 C 0 km/h
696 11-03-2010 19:06:02 0.4 C 2.89 g/m*3 0.4 C 0 km/h
697 11-03-2010 19:18:02 0.3 C 2.92 g/m*3 0.3 C 0 km/h
698 11-03-2010 19:30:02 0.3 C 2.97 g/m*3 0.3 C 0 km/h
699 11-03-2010 19:42:02 0.1 C 2.93 g/m*3 0.1 C 0 km/h
700 11-03-2010 19:54:02 0 C 2.91 g/m*3 0 C 0 km/h
Sensor: Nr:Datum:Temp:Abs-Feuchte:Windchill:Wind:
Aussen-T/F 701 11-03-2010 20:06:02 -0.1 C 2.89 g/m*3 -0.1 C 0 km/h
702 11-03-2010 20:18:02 -0.2 C 2.91 g/m*3 -0.2 C 0 km/h
703 11-03-2010 20:30:02 -0.4 C 2.92 g/m*3 -0.4 C 0 km/h
704 11-03-2010 20:42:02 -0.4 C 2.97 g/m*3 -0.4 C 0 km/h
705 11-03-2010 20:54:01 -0.6 C 2.97 g/m*3 -0.6 C 0 km/h
706 11-03-2010 21:07:04 -0.8 C 2.93 g/m*3 -0.8 C 0 km/h
707 11-03-2010 21:19:04 -0.8 C 2.98 g/m*3 -0.8 C 0 km/h
708 11-03-2010 21:31:04 -0.9 C 2.96 g/m*3 -0.9 C 0 km/h
709 11-03-2010 21:43:05 -1.1 C 2.96 g/m*3 -1.1 C 0 km/h
710 11-03-2010 21:55:05 -1.1 C 2.96 g/m*3 -1.1 C 0 km/h
711 11-03-2010 22:07:05 -1.2 C 3.03 g/m*3 -1.2 C 0 km/h
712 11-03-2010 22:19:05 -1.3 C 3.01 g/m*3 -1.3 C 0 km/h
713 11-03-2010 22:31:05 -1.2 C 3.08 g/m*3 -1.2 C 0 km/h
714 11-03-2010 22:43:05 -1.4 C 3.03 g/m*3 -1.4 C 0 km/h
715 11-03-2010 22:55:05 -1.5 C 3.06 g/m*3 -1.5 C 0 km/h
716 11-03-2010 23:07:05 -1.7 C 3.01 g/m*3 -1.7 C 0 km/h
717 11-03-2010 23:19:05 -1.9 C 2.97 g/m*3 -1.9 C 0 km/h
718 11-03-2010 23:31:05 -2 C 2.99 g/m*3 -2 C 0 km/h
719 11-03-2010 23:43:05 -2.2 C 2.95 g/m*3 -2.2 C 0 km/h
720 11-03-2010 23:55:05 -2.5 C 2.89 g/m*3 -2.5 C 0 km/h
721 12-03-2010 00:07:05 -2.6 C 2.87 g/m*3 -2.6 C 0 km/h
722 12-03-2010 00:19:05 -2.6 C 2.87 g/m*3 -2.6 C 0 km/h
723 12-03-2010 00:31:05 -2.7 C 2.89 g/m*3 -2.7 C 0 km/h
724 12-03-2010 00:43:05 -2.7 C 2.89 g/m*3 -2.7 C 0 km/h
725 12-03-2010 00:55:05 -2.3 C 2.97 g/m*3 -2.3 C 0 km/h
Sensor: Nr:Datum:Temp:Abs-Feuchte:Windchill:Wind:
Aussen-T/F 726 12-03-2010 01:07:05 -1.9 C 3.06 g/m*3 -1.9 C 0 km/h
727 12-03-2010 01:19:05 -1.6 C 3.08 g/m*3 -1.6 C 0 km/h
728 12-03-2010 01:31:05 -1.5 C 3.06 g/m*3 -1.5 C 0 km/h
729 12-03-2010 01:43:05 -1.3 C 3.1 g/m*3 -1.3 C 0 km/h
730 12-03-2010 01:55:06 -1.4 C 3.03 g/m*3 -1.4 C 0 km/h
731 12-03-2010 02:07:06 -1.4 C 3.03 g/m*3 -1.4 C 0 km/h
732 12-03-2010 02:19:06 -1.3 C 3.1 g/m*3 -1.3 C 0 km/h
733 12-03-2010 02:31:06 -1.3 C 3.1 g/m*3 -1.3 C 0 km/h
734 12-03-2010 02:43:06 -1.3 C 3.1 g/m*3 -1.3 C 0 km/h
735 12-03-2010 02:55:06 -1.3 C 3.1 g/m*3 -1.3 C 0 km/h
736 12-03-2010 03:07:06 -1.2 C 3.12 g/m*3 -1.2 C 0 km/h
737 12-03-2010 03:19:06 -1.3 C 3.1 g/m*3 -1.3 C 0 km/h
738 12-03-2010 03:31:06 -1.3 C 3.1 g/m*3 -1.3 C 0 km/h
739 12-03-2010 03:43:06 -1.3 C 3.14 g/m*3 -1.3 C 0 km/h
740 12-03-2010 03:55:06 -1.2 C 3.17 g/m*3 -1.2 C 0 km/h
741 12-03-2010 04:07:06 -1.3 C 3.14 g/m*3 -1.3 C 0 km/h
742 12-03-2010 04:19:06 -1.3 C 3.14 g/m*3 -1.3 C 0 km/h
743 12-03-2010 04:31:06 -1.3 C 3.14 g/m*3 -1.3 C 0 km/h
744 12-03-2010 04:43:06 -1.3 C 3.14 g/m*3 -1.3 C 0 km/h
745 12-03-2010 04:55:06 -1.3 C 3.14 g/m*3 -1.3 C 0 km/h
746 12-03-2010 05:07:06 -1.2 C 3.17 g/m*3 -1.2 C 0 km/h
747 12-03-2010 05:19:06 -1.2 C 3.21 g/m*3 -1.2 C 0 km/h
748 12-03-2010 05:31:06 -1.2 C 3.21 g/m*3 -1.2 C 0 km/h
749 12-03-2010 05:43:06 -1.1 C 3.23 g/m*3 -1.1 C 0 km/h
750 12-03-2010 05:55:06 -1.1 C 3.23 g/m*3 -1.1 C 0 km/h
Sensor: Nr:Datum:Temp:Abs-Feuchte:Windchill:Wind:
Aussen-T/F 751 12-03-2010 06:07:07 -1.1 C 3.28 g/m*3 -1.1 C 0 km/h
752 12-03-2010 06:19:07 -1.1 C 3.28 g/m*3 -1.1 C 0 km/h
753 12-03-2010 06:31:07 -0.9 C 3.32 g/m*3 -0.9 C 0 km/h
754 12-03-2010 06:43:07 -0.9 C 3.32 g/m*3 -0.9 C 0 km/h
755 12-03-2010 06:55:07 -0.9 C 3.37 g/m*3 -0.9 C 0 km/h
756 12-03-2010 07:07:03 -0.9 C 3.41 g/m*3 -0.9 C 0 km/h
757 12-03-2010 07:19:04 -0.9 C 3.46 g/m*3 -0.9 C 0 km/h
758 12-03-2010 07:31:03 -0.9 C 3.51 g/m*3 -0.9 C 0 km/h
759 12-03-2010 07:43:03 -0.9 C 3.55 g/m*3 -0.9 C 0 km/h
760 12-03-2010 07:55:01 -0.9 C 3.6 g/m*3 -0.9 C 0 km/h
761 12-03-2010 08:07:02 -0.7 C 3.69 g/m*3 -0.7 C 0 km/h
762 12-03-2010 08:19:02 -0.7 C 3.69 g/m*3 -0.7 C 0 km/h
763 12-03-2010 08:31:01 -0.5 C 3.74 g/m*3 -0.5 C 0 km/h
764 12-03-2010 08:43:01 -0.4 C 3.77 g/m*3 -0.4 C 0 km/h
765 12-03-2010 08:55:03 -0.4 C 3.82 g/m*3 -0.4 C 0 km/h
766 12-03-2010 09:07:02 -0.3 C 3.89 g/m*3 -0.3 C 0 km/h
767 12-03-2010 09:19:02 -0.2 C 3.92 g/m*3 -0.2 C 0 km/h
768 12-03-2010 09:31:03 0 C 4.02 g/m*3 0 C 0 km/h
769 12-03-2010 09:43:03 0.1 C 4.05 g/m*3 0.1 C 0 km/h
770 12-03-2010 09:55:02 0.3 C 4.06 g/m*3 0.3 C 0 km/h
771 12-03-2010 10:07:01 0.4 C 4.08 g/m*3 0.4 C 0 km/h
772 12-03-2010 10:19:02 0.7 C 4.12 g/m*3 0.7 C 0 km/h
773 12-03-2010 10:31:02 0.9 C 4.12 g/m*3 0.9 C 0 km/h
774 12-03-2010 10:43:02 1.3 C 4.13 g/m*3 1.3 C 0 km/h
775 12-03-2010 10:55:02 1.5 C 4.14 g/m*3 1.5 C 0 km/h
Sensor: Nr:Datum:Temp:Abs-Feuchte:Windchill:Wind:
Aussen-T/F 776 12-03-2010 11:07:03 1.8 C 4.11 g/m*3 1.8 C 0 km/h
777 12-03-2010 11:19:02 2.1 C 4.08 g/m*3 2.1 C 0 km/h
778 12-03-2010 11:31:02 2.2 C 4.06 g/m*3 2.2 C 0 km/h
779 12-03-2010 11:43:03 2.6 C 4.17 g/m*3 2.6 C 0 km/h
780 12-03-2010 11:55:01 2.7 C 4.2 g/m*3 2.7 C 0 km/h
781 12-03-2010 12:07:02 2.8 C 4.16 g/m*3 2.8 C 0 km/h
782 12-03-2010 12:19:01 3.1 C 4.19 g/m*3 3.1 C 0 km/h
783 12-03-2010 12:31:01 3.4 C 4.28 g/m*3 3.4 C 0 km/h
784 12-03-2010 12:43:01 3.8 C 4.27 g/m*3 3.8 C 0 km/h
785 12-03-2010 12:55:01 3.9 C 4.29 g/m*3 3.9 C 0 km/h
786 12-03-2010 13:07:02 4.4 C 4.31 g/m*3 4.4 C 0 km/h
787 12-03-2010 13:19:01 4.4 C 4.24 g/m*3 4.4 C 0 km/h
788 12-03-2010 13:31:02 4.6 C 4.3 g/m*3 4.6 C 0 km/h
789 12-03-2010 13:43:02 5 C 4.14 g/m*3 5 C 0 km/h
790 12-03-2010 13:55:01 5.2 C 4.27 g/m*3 5.2 C 0 km/h
791 12-03-2010 14:07:02 4.8 C 4.16 g/m*3 4.8 C 0 km/h
792 12-03-2010 14:19:02 5 C 4.08 g/m*3 5 C 0 km/h
793 12-03-2010 14:31:01 5.1 C 4.1 g/m*3 5.1 C 0 km/h
794 12-03-2010 14:43:01 5.4 C 4.12 g/m*3 5.4 C 0 km/h
795 12-03-2010 14:55:01 6.1 C 4.09 g/m*3 6.1 C 0 km/h
796 12-03-2010 15:07:02 7.1 C 4.29 g/m*3 7.1 C 0 km/h
797 12-03-2010 15:19:02 6.9 C 3.85 g/m*3 6.9 C 0 km/h
798 12-03-2010 15:31:01 7.4 C 4.06 g/m*3 7.4 C 0 km/h
799 12-03-2010 15:43:01 7.3 C 3.95 g/m*3 7.3 C 0 km/h
800 12-03-2010 15:55:01 6.1 C 3.8 g/m*3 6.1 C 0 km/h
Sensor: Nr:Datum:Temp:Abs-Feuchte:Windchill:Wind:
Aussen-T/F 801 12-03-2010 16:07:01 5.3 C 4.09 g/m*3 5.3 C 0 km/h
802 12-03-2010 16:19:02 4.9 C 4.25 g/m*3 4.9 C 0 km/h
803 12-03-2010 16:31:01 5.1 C 4.38 g/m*3 5.1 C 0 km/h
804 12-03-2010 16:43:01 5.2 C 4.41 g/m*3 5.2 C 0 km/h
805 12-03-2010 16:55:02 5.1 C 4.31 g/m*3 5.1 C 0 km/h
806 12-03-2010 17:07:01 4.9 C 4.32 g/m*3 4.9 C 0 km/h
807 12-03-2010 17:19:01 4.9 C 4.32 g/m*3 4.9 C 0 km/h
808 12-03-2010 17:31:01 4.8 C 4.29 g/m*3 4.8 C 0 km/h
809 12-03-2010 17:43:01 4.4 C 4.24 g/m*3 4.4 C 0 km/h
810 12-03-2010 17:55:02 4.1 C 4.29 g/m*3 4.1 C 0 km/h
811 12-03-2010 18:07:02 3.9 C 4.36 g/m*3 3.9 C 0 km/h
812 12-03-2010 18:19:02 3.7 C 4.36 g/m*3 3.7 C 0 km/h
813 12-03-2010 18:31:01 3.5 C 4.37 g/m*3 3.5 C 0 km/h
814 12-03-2010 18:43:01 3.2 C 4.28 g/m*3 3.2 C 0 km/h
815 12-03-2010 18:55:02 3 C 4.28 g/m*3 3 C 0 km/h
816 12-03-2010 19:07:01 2.8 C 4.34 g/m*3 2.8 C 0 km/h
817 12-03-2010 19:19:02 2.8 C 4.34 g/m*3 2.8 C 0 km/h
818 12-03-2010 19:31:01 2.8 C 4.4 g/m*3 2.8 C 0 km/h
819 12-03-2010 19:43:01 2.9 C 4.43 g/m*3 2.9 C 0 km/h
820 12-03-2010 19:55:02 3.1 C 4.43 g/m*3 3.1 C 0 km/h
821 12-03-2010 20:07:02 3.1 C 4.43 g/m*3 3.1 C 0 km/h
822 12-03-2010 20:19:02 3.1 C 4.43 g/m*3 3.1 C 0 km/h
823 12-03-2010 20:31:03 3.2 C 4.46 g/m*3 3.2 C 0 km/h
824 12-03-2010 20:43:03 3.1 C 4.37 g/m*3 3.1 C 0 km/h
825 12-03-2010 20:55:02 2.9 C 4.43 g/m*3 2.9 C 0 km/h
Sensor: Nr:Datum:Temp:Abs-Feuchte:Windchill:Wind:
Aussen-T/F 826 12-03-2010 21:07:01 2.8 C 4.4 g/m*3 2.8 C 0 km/h
827 12-03-2010 21:19:02 2.8 C 4.46 g/m*3 2.8 C 0 km/h
828 12-03-2010 21:31:02 2.7 C 4.43 g/m*3 2.7 C 0 km/h
829 12-03-2010 21:43:02 2.7 C 4.43 g/m*3 2.7 C 0 km/h
830 12-03-2010 21:55:03 2.6 C 4.4 g/m*3 2.6 C 0 km/h
831 12-03-2010 22:07:03 2.6 C 4.4 g/m*3 2.6 C 0 km/h
832 12-03-2010 22:20:03 2.6 C 4.46 g/m*3 2.6 C 0 km/h
833 12-03-2010 22:32:03 2.4 C 4.4 g/m*3 2.4 C 0 km/h
834 12-03-2010 22:44:03 2.4 C 4.45 g/m*3 2.4 C 0 km/h
835 12-03-2010 22:56:03 2.4 C 4.45 g/m*3 2.4 C 0 km/h
836 12-03-2010 23:08:03 2.4 C 4.45 g/m*3 2.4 C 0 km/h
837 12-03-2010 23:20:03 2.4 C 4.45 g/m*3 2.4 C 0 km/h
838 12-03-2010 23:32:03 2.3 C 4.42 g/m*3 2.3 C 0 km/h
839 12-03-2010 23:44:03 2.2 C 4.45 g/m*3 2.2 C 0 km/h
840 12-03-2010 23:56:03 2.3 C 4.48 g/m*3 2.3 C 0 km/h

Legende:
   Min
   Max


Maximal/Minimal-Werte vom 06.03.2010 - 12.03.2010

Sensor Min Max Avg
Temp
(Aussen-T/F)
-7.5 °C
08-03-2010  07:15:03
9.3 °C
10-03-2010  15:17:02
-0.12 °C
Abs-Feuchte
(Aussen-T/F)
0.85 g/m*3
09-03-2010  21:28:02
4.61 g/m*3
06-03-2010  02:49:06
2.42 g/m*3
Windchill
(Aussen-T/F)
-7.5 C
08-03-2010  07:15:03
9.3 C
10-03-2010  15:17:02
-0.11 C

Die Daten stammen von einer Davis Vantage Pro 2 Wetter-Station und werden unter Linux mit der Software wview2wettercgi und aufbereitet. Alle Angaben erfolgen ohne Gewähr für ihre Vollständigkeit oder Richtigkeit.
Kontakt: Rainer Krienke krienke@uni-koblenz.de . Meine Webseiten an der Uni Koblenz oder privat.
Version: $Revision: 0.78 $